Latest Weather Observations for Melbourne (Olympic Park)

IDV60901

Issued at 5:11 pm EST Saturday 23 May 2015 (issued every 10 minutes, with the page automatically refreshed every 10 minutes)

About weather observations | Map of Melbourne area stations | Latest observations for Melbourne area | Other Formats
Station Details ID: 086338 Name: MELBOURNE (OLYMPIC PARK) Lat: -37.83 Lon: 144.98 Height: 7.53 m
Data from the previous 72 hours. | See also: Recent months at Melbourne (Olympic Park)
Date/Time
EST
Tmp

°C
App
Tmp
°C
Dew
Point
°C
Rel
Hum
%
Delta-T

°C
Wind Press
QNH
hPa
Press
MSL
hPa
Rain
since
9 am
mm
Dir
 
Spd
km/h
Gust
km/h
Spd
kts
Gust
kts
23/05:00pm 11.1 9.5 6.5 73 2.1 SSW 4 11 2 6 1031.4 1031.4 0.0
23/04:30pm 11.5 9.3 6.2 70 2.5 SSW 7 13 4 7 1031.6 1031.6 0.0
23/04:00pm 12.2 9.6 6.3 67 2.8 SSW 9 15 5 8 1031.7 1031.7 0.0
23/03:30pm 12.2 9.3 6.3 67 2.8 SSW 11 15 6 8 1031.8 1031.8 0.0
23/03:00pm 12.2 9.6 6.3 67 2.8 SSW 9 15 5 8 1031.7 1031.7 0.0
23/02:30pm 12.3 8.6 6.1 66 2.9 SSW 15 20 8 11 1031.7 1031.7 0.0
23/02:00pm 12.8 10.3 6.6 66 2.9 SSW 9 17 5 9 1031.5 1031.5 0.0
23/01:30pm 12.9 10.0 6.5 65 3.1 SSW 11 20 6 11 1031.9 1031.9 0.0
23/01:00pm 12.5 9.1 5.9 64 3.1 SSW 13 20 7 11 1032.0 1032.0 0.0
23/12:30pm 12.9 9.9 6.0 63 3.3 SSW 11 17 6 9 1032.2 1032.2 0.0
23/12:00pm 12.8 9.8 5.9 63 3.2 SSW 11 17 6 9 1032.7 1032.7 0.0
23/11:30am 12.3 9.5 5.2 62 3.3 SW 9 17 5 9 1033.1 1033.1 0.0
23/11:00am 12.0 8.9 5.4 64 3.0 SSW 11 19 6 10 1033.4 1033.4 0.0
23/10:30am 12.1 9.8 5.5 64 3.1 SSW 7 13 4 7 1033.5 1033.5 0.0
23/10:00am 12.2 9.5 5.4 63 3.1 SW 9 15 5 8 1033.5 1033.5 0.0
23/09:30am 11.4 9.9 5.1 65 2.9 SSW 2 7 1 4 1033.6 1033.6 0.0
23/09:00am 11.5 9.3 5.4 66 2.8 SSE 6 13 3 7 1033.4 1033.4 0.0
23/08:30am 11.0 10.1 6.0 71 2.3 CALM 0 0 0 0 1033.3 1033.3 0.0
23/08:00am 10.7 9.9 6.6 76 1.9 CALM 0 6 0 3 1033.0 1033.0 0.0
23/07:30am 10.4 9.6 6.4 76 1.9 CALM 0 0 0 0 1032.8 1032.8 0.0
23/07:00am 10.6 9.6 5.8 72 2.2 CALM 0 6 0 3 1032.6 1032.6 0.0
23/06:30am 11.0 8.8 5.5 69 2.5 SSE 6 9 3 5 1032.4 1032.4 0.0
23/06:00am 11.1 9.0 5.8 70 2.4 SE 6 11 3 6 1032.1 1032.1 0.0
23/05:30am 10.5 9.3 6.3 75 2.0 SSW 2 9 1 5 1032.0 1032.0 0.0
23/05:00am 10.4 9.4 5.8 73 2.1 CALM 0 0 0 0 1031.8 1031.8 0.0
23/04:30am 10.8 9.3 5.1 68 2.6 SSE 2 7 1 4 1031.7 1031.7 0.0
23/04:00am 11.1 8.9 5.4 68 2.6 SE 6 13 3 7 1031.5 1031.5 0.0
23/03:30am 10.8 9.9 6.2 73 2.1 CALM 0 0 0 0 1031.6 1031.6 0.0
23/03:00am 10.9 9.9 5.7 70 2.4 CALM 0 6 0 3 1031.8 1031.8 0.0
23/02:30am 11.0 9.2 5.5 69 2.5 SSE 4 9 2 5 1031.8 1031.8 0.0
23/02:00am 11.3 8.9 5.4 67 2.7 SSE 7 13 4 7 1032.0 1032.0 0.0
23/01:30am 11.7 9.4 5.8 67 2.7 SSE 7 13 4 7 1031.9 1031.9 0.0
23/01:00am 11.7 9.4 5.6 66 2.8 S 7 15 4 8 1032.0 1032.0 0.0
23/12:30am 11.8 9.1 5.4 65 3.0 SSE 9 17 5 9 1032.1 1032.1 0.0
23/12:00am 11.9 9.2 5.8 66 2.8 SSE 9 15 5 8 1032.4 1032.4 0.0
 
Date/Time
EST
Tmp

°C
App
Tmp
°C
Dew
Point
°C
Rel
Hum
%
Delta-T

°C
Wind Press
QNH
hPa
Press
MSL
hPa
Rain
since
9 am
mm
Dir
 
Spd
km/h
Gust
km/h
Spd
kts
Gust
kts
22/11:30pm 12.0 9.0 6.1 67 2.8 SSE 11 20 6 11 1032.3 1032.3 0.0
22/11:00pm 12.0 9.8 6.1 67 2.7 S 7 11 4 6 1032.1 1032.1 0.0
22/10:30pm 11.9 9.2 5.5 65 3.0 SSE 9 15 5 8 1032.2 1032.2 0.0
22/10:00pm 11.9 9.2 5.8 66 2.8 SSE 9 15 5 8 1032.2 1032.2 0.0
22/09:30pm 11.9 8.8 5.5 65 3.0 SSE 11 20 6 11 1032.1 1032.1 0.0
22/09:00pm 12.0 9.0 5.9 66 2.8 SSE 11 20 6 11 1031.9 1031.9 0.0
22/08:30pm 12.0 8.9 5.4 64 3.1 SSE 11 20 6 11 1031.9 1031.9 0.0
22/08:00pm 11.9 9.1 5.3 64 3.0 SSE 9 20 5 11 1031.8 1031.8 0.0
22/07:30pm 11.9 9.1 5.1 63 3.1 SSE 9 15 5 8 1031.6 1031.6 0.0
22/07:00pm 12.1 8.6 5.3 63 3.1 S 13 24 7 13 1031.4 1031.4 0.0
22/06:30pm 12.3 8.6 6.1 66 2.9 SSE 15 24 8 13 1031.0 1031.0 0.0
22/06:00pm 12.4 9.3 5.6 63 3.1 SSE 11 20 6 11 1030.7 1030.7 0.0
22/05:30pm 12.4 8.9 5.3 62 3.3 SSE 13 20 7 11 1030.6 1030.6 0.0
22/05:00pm 12.6 9.3 6.2 65 3.0 SSE 13 20 7 11 1030.5 1030.5 0.0
22/04:30pm 12.6 10.0 6.0 64 3.1 SSW 9 17 5 9 1030.3 1030.3 0.0
22/04:00pm 12.8 9.5 6.4 65 3.0 S 13 24 7 13 1030.4 1030.4 0.0
22/03:30pm 13.1 9.9 6.9 66 3.0 S 13 24 7 13 1030.3 1030.3 0.0
22/03:00pm 13.1 9.2 7.1 67 2.9 S 17 28 9 15 1029.9 1029.9 0.0
22/02:30pm 14.1 11.1 7.9 66 3.1 SSW 13 28 7 15 1029.5 1029.5 0.0
22/02:00pm 13.5 10.2 8.1 70 2.7 S 15 22 8 12 1029.4 1029.4 0.0
22/01:30pm 13.5 11.2 9.0 74 2.3 S 11 20 6 11 1029.4 1029.4 0.0
22/01:00pm 13.9 11.0 8.1 68 2.9 SSE 13 20 7 11 1029.5 1029.5 0.0
22/12:30pm 13.7 10.1 6.6 62 3.4 SSE 15 26 8 14 1029.4 1029.4 0.0
22/12:00pm 13.7 10.9 7.0 64 3.2 SSE 11 19 6 10 1029.7 1029.7 0.0
22/11:30am 13.8 11.3 6.4 61 3.5 SSE 9 17 5 9 1029.8 1029.8 0.0
22/11:00am 13.5 10.2 6.6 63 3.3 S 13 22 7 12 1030.0 1030.0 0.0
22/10:30am 13.6 11.3 7.6 67 2.9 SSE 9 17 5 9 1030.0 1030.0 0.0
22/10:00am 13.0 10.6 7.0 67 2.9 SSE 9 15 5 8 1029.8 1029.8 0.0
22/09:30am 12.4 11.0 8.7 78 1.8 S 6 13 3 7 1029.8 1029.8 0.0
22/09:00am 11.6 10.7 9.2 85 1.2 SSE 4 11 2 6 1029.6 1029.6 0.4
22/08:30am 10.4 10.2 9.2 92 0.6 CALM 0 0 0 0 1029.4 1029.4 0.4
22/08:00am 10.0 9.5 9.2 95 0.4 S 2 7 1 4 1029.3 1029.3 0.4
22/07:30am 9.8 9.6 9.2 96 0.3 CALM 0 0 0 0 1028.9 1028.9 0.4
22/07:00am 9.7 9.5 9.1 96 0.3 CALM 0 6 0 3 1028.5 1028.5 0.4
22/06:30am 9.5 9.3 9.0 97 0.2 CALM 0 6 0 3 1028.2 1028.2 0.4
22/06:00am 9.7 9.6 9.4 98 0.1 CALM 0 6 0 3 1027.9 1027.9 0.4
22/05:30am 9.6 8.8 9.5 99 0.0 S 4 9 2 5 1027.7 1027.7 0.4
22/05:00am 9.3 8.7 9.0 98 0.1 S 2 9 1 5 1027.3 1027.3 0.4
22/04:30am 9.3 9.0 8.8 97 0.2 CALM 0 0 0 0 1027.1 1027.1 0.4
22/04:00am 10.1 10.0 9.3 95 0.4 CALM 0 0 0 0 1026.9 1026.9 0.4
22/03:30am 10.6 10.2 9.7 94 0.5 SE 2 7 1 4 1026.8 1026.8 0.4
22/03:00am 11.1 9.8 10.0 93 0.6 SSE 7 15 4 8 1026.8 1026.8 0.4
22/02:30am 11.4 9.9 10.5 94 0.5 SSE 9 17 5 9 1026.8 1026.8 0.4
22/02:00am 11.3 10.3 10.4 94 0.5 SSE 6 11 3 6 1026.6 1026.6 0.4
22/01:30am 11.1 10.0 10.5 96 0.3 S 7 11 4 6 1026.5 1026.5 0.4
22/01:00am 11.0 9.8 10.4 96 0.3 SSE 7 11 4 6 1026.4 1026.4 0.4
22/12:30am 11.3 11.1 10.5 95 0.4 S 2 9 1 5 1026.4 1026.4 0.2
22/12:00am 11.5 10.5 10.9 96 0.3 S 7 11 4 6 1026.4 1026.4 0.2
 
Date/Time
EST
Tmp

°C
App
Tmp
°C
Dew
Point
°C
Rel
Hum
%
Delta-T

°C
Wind Press
QNH
hPa
Press
MSL
hPa
Rain
since
9 am
mm
Dir
 
Spd
km/h
Gust
km/h
Spd
kts
Gust
kts
21/11:30pm 11.0 10.8 10.4 96 0.3 S 2 7 1 4 1026.3 1026.3 0.2
21/11:00pm 11.1 10.9 10.3 95 0.4 S 2 6 1 3 1026.2 1026.2 0.2
21/10:30pm 11.3 10.2 10.5 95 0.4 S 7 9 4 5 1026.2 1026.2 0.2
21/10:00pm 11.6 10.9 11.4 99 0.1 SSE 6 9 3 5 1026.1 1026.1 0.2
21/09:30pm 11.6 12.0 11.3 98 0.2 CALM 0 0 0 0 1025.8 1025.8 0.2
21/09:00pm 11.9 11.2 11.4 97 0.3 ESE 6 9 3 5 1025.6 1025.6 0.2
21/08:30pm 11.9 12.4 11.6 98 0.2 CALM 0 2 0 1 1025.2 1025.2 0.2
21/08:00pm 11.9 12.3 11.4 97 0.3 CALM 0 0 0 0 1025.0 1025.0 0.2
21/07:30pm 11.7 12.1 11.2 97 0.3 CALM 0 0 0 0 1024.9 1024.9 0.2
21/07:00pm 11.6 11.9 11.0 96 0.3 CALM 0 6 0 3 1024.7 1024.7 0.2
21/06:30pm 11.6 10.7 10.8 95 0.4 W 6 11 3 6 1024.5 1024.5 0.2
21/06:00pm 11.7 11.2 10.6 93 0.6 WSW 4 9 2 5 1024.3 1024.3 0.0
21/05:30pm 12.1 9.7 10.2 88 1.0 SSW 13 20 7 11 1024.0 1024.0 0.0
21/05:00pm 12.8 10.3 8.3 74 2.2 SSW 11 17 6 9 1023.8 1023.8 0.0
21/04:30pm 12.8 11.0 8.1 73 2.3 SSW 7 17 4 9 1023.6 1023.6 0.0
21/04:00pm 12.8 11.3 8.5 75 2.1 SSW 6 13 3 7 1023.6 1023.6 0.0
21/03:30pm 12.7 10.7 8.6 76 2.0 S 9 15 5 8 1023.5 1023.5 0.0
21/03:00pm 12.4 10.9 9.2 81 1.6 SSW 7 13 4 7 1023.4 1023.4 0.0
21/02:30pm 12.4 10.7 10.0 85 1.2 S 9 24 5 13 1023.2 1023.2 0.0
21/02:00pm 12.7 10.2 9.7 82 1.5 SSW 13 20 7 11 1023.1 1023.1 0.0
21/01:30pm 12.5 11.2 9.9 84 1.3 SW 7 17 4 9 1023.2 1023.2 0.0
21/01:00pm 12.7 11.0 9.7 82 1.5 SW 9 15 5 8 1023.4 1023.4 0.0
21/12:30pm 13.0 10.7 8.9 76 2.1 SW 11 19 6 10 1023.7 1023.7 0.0
21/12:00pm 12.7 10.8 9.0 78 1.8 W 9 15 5 8 1023.9 1023.9 0.0
21/11:30am 12.3 12.2 9.5 83 1.4 CALM 0 7 0 4 1024.2 1024.2 0.0
21/11:00am 11.8 10.3 9.2 84 1.3 WSW 7 13 4 7 1024.4 1024.4 0.0
21/10:30am 12.4 10.4 8.7 78 1.8 SSW 9 17 5 9 1024.2 1024.2 0.0
21/10:00am 12.1 10.1 8.8 80 1.6 SW 9 17 5 9 1024.0 1024.0 0.0
21/09:30am 11.9 9.8 8.4 79 1.7 SSW 9 17 5 9 1023.8 1023.8 0.0
21/09:00am 11.3 9.9 8.7 84 1.3 SW 6 13 3 7 1023.5 1023.5 6.2
21/08:30am 11.1 8.7 8.7 85 1.2 SSW 11 19 6 10 1023.4 1023.4 6.2
21/08:00am 10.9 8.2 8.8 87 1.0 SSW 13 26 7 14 1023.0 1023.0 6.2
21/07:30am 11.3 9.3 8.5 83 1.4 SSW 9 17 5 9 1022.6 1022.6 6.2
21/07:00am 11.2 9.1 8.2 82 1.5 WSW 9 17 5 9 1022.2 1022.2 6.2
21/06:30am 10.7 9.0 8.5 86 1.1 SW 7 11 4 6 1021.9 1021.9 6.2
21/06:00am 10.5 9.5 8.9 90 0.8 SSW 4 9 2 5 1021.7 1021.7 6.2
21/05:30am 10.6 8.3 8.9 89 0.8 S 11 19 6 10 1021.6 1021.6 6.0
21/05:00am 10.5 8.9 8.8 89 0.8 SE 7 13 4 7 1021.2 1021.2 6.0
21/04:30am 10.8 8.0 8.7 87 1.0 S 13 22 7 12 1021.0 1021.0 6.0
21/04:00am 10.6 7.9 8.9 89 0.8 SSW 13 26 7 14 1020.7 1020.7 6.0
21/03:30am 10.9 8.5 8.7 86 1.1 SSW 11 30 6 16 1020.6 1020.6 5.6
21/03:00am 11.0 9.2 9.3 89 0.8 SSW 9 15 5 8 1020.5 1020.5 5.6
21/02:30am 10.7 8.5 9.5 92 0.6 SSW 11 24 6 13 1020.5 1020.5 5.2
21/02:00am 10.7 7.8 9.8 94 0.5 SSW 15 28 8 15 1020.4 1020.4 4.8
21/01:30am 10.8 8.7 9.9 94 0.5 SSW 11 20 6 11 1020.2 1020.2 4.4
21/01:00am 10.9 8.5 10.1 95 0.4 SSW 13 26 7 14 1020.1 1020.1 4.0
21/12:30am 11.1 8.7 10.0 93 0.6 SSW 13 28 7 15 1019.9 1019.9 4.0
21/12:00am 11.4 9.0 10.1 92 0.7 SSW 13 28 7 15 1019.7 1019.7 4.0
 
Date/Time
EST
Tmp

°C
App
Tmp
°C
Dew
Point
°C
Rel
Hum
%
Delta-T

°C
Wind Press
QNH
hPa
Press
MSL
hPa
Rain
since
9 am
mm
Dir
 
Spd
km/h
Gust
km/h
Spd
kts
Gust
kts
20/11:30pm 11.4 8.3 10.3 93 0.6 SSW 17 28 9 15 1019.3 1019.3 4.0
20/11:00pm 11.3 8.4 11.1 99 0.1 SW 17 32 9 17 1019.0 1019.0 4.0
20/10:30pm 11.5 10.3 11.5 100 0.0 SW 9 20 5 11 1018.8 1018.8 4.0
20/10:00pm 11.6 10.0 11.6 100 0.0 SW 11 24 6 13 1018.5 1018.5 4.0
20/09:30pm 11.8 9.1 11.8 100 0.0 SW 17 33 9 18 1018.2 1018.2 3.8
20/09:00pm 12.1 11.0 12.1 100 0.0 SW 9 17 5 9 1017.7 1017.7 3.6
20/08:30pm 12.3 10.2 12.3 100 0.0 SW 15 28 8 15 1017.1 1017.1 3.2
20/08:00pm 12.4 11.4 12.2 99 0.1 WSW 9 20 5 11 1016.6 1016.6 2.8
20/07:30pm 12.8 11.1 12.5 98 0.2 WSW 13 28 7 15 1016.0 1016.0 1.8
20/07:00pm 12.7 11.2 11.9 95 0.4 WNW 11 20 6 11 1015.4 1015.4 1.6
20/06:30pm 12.8 11.6 11.5 92 0.7 WNW 9 17 5 9 1014.9 1014.9 1.0
20/06:00pm 13.4 10.4 10.6 83 1.5 WNW 17 26 9 14 1014.5 1014.5 0.0
20/05:30pm 14.3 11.5 10.1 76 2.2 NW 15 30 8 16 1013.8 1013.8 0.0

Latest Capital City Observations: Canberra | Sydney | Melbourne | Brisbane | Adelaide | Perth | Hobart | Darwin

Other Formats:

Comma delimited format used in spreadsheet applications
http://www.bom.gov.au/fwo/IDV60901/IDV60901.95936.axf

JavaScript Object Notation format (JSON) in row-major order
http://www.bom.gov.au/fwo/IDV60901/IDV60901.95936.json